Time;durP1;ratioP1;P1;durP2;ratioP2;P2;SDS_P1;SDS_P2;PMS_P1;PMS_P2;Temp;Humidity;BMP_temperature;BMP_pressure;BME280_temperature;BME280_humidity;BME280_pressure;Samples;Min_cycle;Max_cycle;Signal;HPM_P1;HPM_P2
2022/05/16 00:02:25;;;;;;;14.50;3.77;;;;;;;17.22;100.00;100783.78;1881129;75;21107;-76
2022/05/16 00:04:52;;;;;;;13.30;2.72;;;;;;;17.20;100.00;100777.79;1881344;74;21086;-76
2022/05/16 00:07:21;;;;;;;12.00;3.20;;;;;;;17.18;100.00;100774.79;1881557;75;21022;-75
2022/05/16 00:09:49;;;;;;;9.83;3.25;;;;;;;17.27;100.00;100777.19;1881658;74;21044;-76
2022/05/16 00:12:17;;;;;;;10.63;2.65;;;;;;;17.25;100.00;100785.02;1892048;74;21025;-76
2022/05/16 00:14:46;;;;;;;15.32;4.12;;;;;;;17.41;100.00;100793.74;1886740;76;21184;-76
2022/05/16 00:17:14;;;;;;;11.10;3.62;;;;;;;17.31;100.00;100798.30;1882518;74;21085;-76
2022/05/16 00:19:42;;;;;;;10.18;3.67;;;;;;;17.37;100.00;100803.33;1848451;77;21058;-76
2022/05/16 00:22:11;;;;;;;11.03;3.25;;;;;;;17.45;100.00;100812.69;1882053;76;21431;-76
2022/05/16 00:24:43;;;;;;;13.70;3.40;;;;;;;17.38;100.00;100811.55;1881247;76;21094;-76
2022/05/16 00:27:12;;;;;;;14.87;3.22;;;;;;;17.33;100.00;100808.66;1847123;76;21003;-76
2022/05/16 00:29:39;;;;;;;10.60;3.50;;;;;;;17.36;100.00;100805.96;1881272;74;21665;-76
2022/05/16 00:32:08;;;;;;;13.62;4.37;;;;;;;17.35;100.00;100808.16;1881266;74;21050;-76
2022/05/16 00:34:36;;;;;;;10.65;3.22;;;;;;;17.33;100.00;100817.74;1822596;77;21097;-75
2022/05/16 00:37:04;;;;;;;10.13;3.70;;;;;;;17.46;100.00;100819.15;1881551;76;21071;-76
2022/05/16 00:39:32;;;;;;;8.58;3.00;;;;;;;17.39;100.00;100818.88;1822716;77;21105;-76
2022/05/16 00:42:01;;;;;;;11.57;2.62;;;;;;;17.40;100.00;100820.14;1849059;78;21117;-76
2022/05/16 00:44:29;;;;;;;15.32;4.20;;;;;;;17.48;100.00;100821.71;1882912;74;21274;-76
2022/05/16 00:46:56;;;;;;;10.75;3.35;;;;;;;17.43;100.00;100824.41;1881064;76;21041;-76
2022/05/16 00:49:30;;;;;;;15.40;3.62;;;;;;;17.44;100.00;100820.91;1848477;76;21130;-76
2022/05/16 00:52:03;;;;;;;16.35;3.47;;;;;;;17.56;100.00;100815.02;1832511;77;21061;-76
2022/05/16 00:54:33;;;;;;;13.18;4.10;;;;;;;17.54;100.00;100815.05;1816239;79;21086;-75
2022/05/16 00:57:05;;;;;;;13.98;3.08;;;;;;;17.57;100.00;100815.45;1817614;77;21511;-76
2022/05/16 00:59:51;;;;;;;13.87;3.13;;;;;;;17.37;100.00;100811.59;1818537;77;21152;-76
2022/05/16 01:05:07;;;;;;;10.30;2.95;;;;;;;17.32;100.00;100808.22;1816356;78;21163;-75
2022/05/16 01:07:37;;;;;;;10.75;3.25;;;;;;;17.38;100.00;100814.58;1838344;77;21069;-75
2022/05/16 01:10:07;;;;;;;14.55;3.75;;;;;;;17.28;100.00;100825.62;1849380;76;21150;-75
2022/05/16 01:12:38;;;;;;;12.33;4.17;;;;;;;17.23;100.00;100820.99;1881396;74;21107;-75
2022/05/16 01:15:08;;;;;;;14.33;3.05;;;;;;;17.36;100.00;100821.11;1876576;74;21082;-76
2022/05/16 01:17:35;;;;;;;13.08;2.75;;;;;;;17.37;100.00;100818.91;1862425;76;21193;-75
2022/05/16 01:20:03;;;;;;;13.10;3.05;;;;;;;17.32;100.00;100818.17;1883004;74;21743;-75
2022/05/16 01:22:42;;;;;;;10.85;2.87;;;;;;;17.25;100.00;100814.88;1882218;76;21136;-75
2022/05/16 01:25:22;;;;;;;11.70;3.47;;;;;;;17.35;100.00;100813.35;1845386;76;21162;-75
2022/05/16 01:27:52;;;;;;;9.53;3.05;;;;;;;17.43;100.00;100819.21;1861478;76;21108;-75
2022/05/16 01:30:29;;;;;;;14.33;3.15;;;;;;;17.47;100.00;100824.74;1868150;77;21034;-75
2022/05/16 01:32:57;;;;;;;8.68;2.75;;;;;;;17.19;100.00;100825.38;1869739;77;21503;-75
2022/05/16 01:35:27;;;;;;;10.13;3.22;;;;;;;17.26;100.00;100824.36;1868024;77;21074;-75
2022/05/16 01:40:40;;;;;;;12.25;3.08;;;;;;;17.32;100.00;100829.86;1846678;78;21083;-75
2022/05/16 01:43:09;;;;;;;11.15;3.25;;;;;;;17.23;100.00;100827.02;1816831;77;21119;-75
2022/05/16 01:45:37;;;;;;;9.80;3.58;;;;;;;17.27;100.00;100828.66;1876111;76;21145;-75
2022/05/16 01:48:05;;;;;;;8.75;3.87;;;;;;;17.13;100.00;100834.63;1846056;76;21156;-75
2022/05/16 01:50:32;;;;;;;9.68;3.02;;;;;;;17.13;100.00;100835.46;1846080;76;21508;-75
2022/05/16 01:53:00;;;;;;;7.83;2.55;;;;;;;17.24;100.00;100833.94;1815052;77;21143;-75
2022/05/16 01:55:28;;;;;;;11.60;2.87;;;;;;;17.29;100.00;100839.02;1852963;76;21175;-75
2022/05/16 01:57:56;;;;;;;13.43;3.62;;;;;;;17.15;100.00;100839.32;1867481;77;21108;-75
2022/05/16 02:00:23;;;;;;;13.40;3.55;;;;;;;17.22;100.00;100837.44;1846103;76;21059;-76
2022/05/16 02:02:51;;;;;;;8.30;2.87;;;;;;;17.31;100.00;100842.44;1845089;77;21539;-75
2022/05/16 02:05:21;;;;;;;12.53;3.25;;;;;;;17.46;100.00;100842.95;1816345;77;21088;-75
2022/05/16 02:07:50;;;;;;;10.08;3.02;;;;;;;17.25;100.00;100846.03;1868223;77;21046;-75
2022/05/16 02:10:19;;;;;;;16.27;3.27;;;;;;;17.06;100.00;100849.48;1822743;77;21070;-75
2022/05/16 02:12:47;;;;;;;6.47;2.25;;;;;;;17.17;100.00;100843.19;1846727;76;21113;-75
2022/05/16 02:15:17;;;;;;;8.05;3.52;;;;;;;17.17;100.00;100847.95;1817463;77;21092;-75
2022/05/16 02:17:45;;;;;;;13.80;2.92;;;;;;;17.19;100.00;100854.41;1833013;78;21594;-75
2022/05/16 02:20:14;;;;;;;10.18;3.08;;;;;;;17.16;100.00;100841.02;1795549;78;21161;-75
2022/05/16 02:25:27;;;;;;;11.80;3.05;;;;;;;17.25;100.00;100846.46;1827179;78;21198;-75
2022/05/16 02:27:55;;;;;;;8.70;3.00;;;;;;;17.25;100.00;100847.33;1819690;77;21050;-75
2022/05/16 02:30:23;;;;;;;11.73;3.12;;;;;;;17.37;100.00;100846.18;1837519;78;21066;-74
2022/05/16 02:32:50;;;;;;;7.75;2.90;;;;;;;17.21;100.00;100841.80;1837215;78;21062;-74
2022/05/16 02:35:19;;;;;;;9.10;3.02;;;;;;;17.40;100.00;100838.76;1836889;78;21858;-75
2022/05/16 02:37:46;;;;;;;13.83;3.02;;;;;;;17.25;100.00;100836.94;1837680;78;21168;-75
2022/05/16 02:40:14;;;;;;;7.22;2.40;;;;;;;17.35;100.00;100833.69;1827893;78;21499;-75
2022/05/16 02:42:41;;;;;;;8.13;2.50;;;;;;;17.20;100.00;100840.09;1827431;78;21066;-75
2022/05/16 02:45:10;;;;;;;13.62;3.83;;;;;;;17.26;100.00;100837.78;1835033;78;21161;-75
2022/05/16 02:47:37;;;;;;;8.60;2.30;;;;;;;17.39;100.00;100838.36;1837734;78;21078;-75
2022/05/16 02:50:05;;;;;;;11.88;3.05;;;;;;;17.20;100.00;100840.09;1829979;78;21044;-75
2022/05/16 02:52:34;;;;;;;9.55;2.37;;;;;;;17.27;100.00;100849.43;1826939;77;21141;-75
2022/05/16 02:55:01;;;;;;;9.40;3.60;;;;;;;17.32;100.00;100846.73;1832895;78;21106;-74
2022/05/16 02:57:30;;;;;;;10.95;2.42;;;;;;;17.26;100.00;100849.03;1795620;78;21043;-74
2022/05/16 02:59:57;;;;;;;9.68;2.12;;;;;;;17.16;100.00;100841.02;1807723;78;21174;-75
2022/05/16 03:02:26;;;;;;;10.40;2.52;;;;;;;17.35;100.00;100847.11;1827099;78;21063;-75
2022/05/16 03:04:53;;;;;;;10.75;3.15;;;;;;;17.31;100.00;100841.14;1830210;78;21106;-75
2022/05/16 03:07:21;;;;;;;13.72;3.17;;;;;;;17.30;100.00;100838.58;1837292;78;21058;-75
2022/05/16 03:09:49;;;;;;;7.80;2.62;;;;;;;17.26;100.00;100837.34;1835380;78;21152;-75
2022/05/16 03:12:16;;;;;;;8.50;3.20;;;;;;;17.24;100.00;100828.75;1817947;78;21125;-75
2022/05/16 03:14:43;;;;;;;13.48;2.87;;;;;;;17.18;100.00;100830.17;1818584;78;21152;-75
2022/05/16 03:17:11;;;;;;;8.28;3.17;;;;;;;17.12;100.00;100827.27;1823182;78;21047;-74
2022/05/16 03:19:38;;;;;;;7.05;2.52;;;;;;;17.22;100.00;100836.14;1830481;78;21071;-75
2022/05/16 03:22:06;;;;;;;9.35;2.30;;;;;;;17.15;100.00;100832.83;1837648;78;21102;-74
2022/05/16 03:24:36;;;;;;;9.43;2.65;;;;;;;17.00;100.00;100840.05;1834525;78;21150;-75
2022/05/16 03:27:05;;;;;;;8.40;2.85;;;;;;;16.98;100.00;100842.25;1817764;78;21144;-75
2022/05/16 03:29:32;;;;;;;10.30;2.77;;;;;;;16.97;100.00;100856.98;1836023;78;21195;-75
2022/05/16 03:32:00;;;;;;;8.23;2.77;;;;;;;16.99;100.00;100860.39;1827082;78;21153;-74
2022/05/16 03:34:28;;;;;;;14.05;3.87;;;;;;;17.31;100.00;100858.45;1826247;78;21117;-75
2022/05/16 03:36:55;;;;;;;9.05;2.87;;;;;;;17.25;100.00;100855.55;1816614;78;21519;-75
2022/05/16 03:42:09;;;;;;;11.45;2.20;;;;;;;17.09;100.00;100864.14;1832179;77;21116;-74
2022/05/16 03:44:36;;;;;;;9.63;3.05;;;;;;;17.02;100.00;100863.35;1837679;78;21255;-75
2022/05/16 03:47:04;;;;;;;8.80;2.25;;;;;;;17.10;100.00;100872.33;1832808;78;21094;-74
2022/05/16 03:49:31;;;;;;;8.83;3.00;;;;;;;17.24;100.00;100866.40;1826835;78;21027;-75
2022/05/16 03:51:59;;;;;;;13.45;3.17;;;;;;;17.17;100.00;100873.04;1831202;78;21035;-74
2022/05/16 03:54:27;;;;;;;8.28;2.62;;;;;;;17.18;100.00;100876.91;1837273;78;21162;-75
2022/05/16 03:56:54;;;;;;;6.12;2.15;;;;;;;17.23;100.00;100869.86;1834652;78;21039;-74
2022/05/16 03:59:22;;;;;;;8.58;2.00;;;;;;;17.26;100.00;100860.71;1827134;78;21166;-75
2022/05/16 04:01:51;;;;;;;9.63;2.40;;;;;;;17.16;100.00;100859.19;1828325;78;21121;-74
2022/05/16 04:04:18;;;;;;;8.55;1.95;;;;;;;17.14;100.00;100858.39;1837263;78;21114;-74
2022/05/16 04:06:46;;;;;;;11.22;2.10;;;;;;;17.00;100.00;100859.52;1837165;78;21047;-74
2022/05/16 04:09:14;;;;;;;8.43;2.58;;;;;;;17.07;100.00;100876.28;1837065;78;21121;-74
2022/05/16 04:11:42;;;;;;;8.48;2.40;;;;;;;17.10;100.00;100875.78;1826052;77;21078;-74
2022/05/16 04:14:09;;;;;;;12.63;3.42;;;;;;;17.13;100.00;100877.46;1817885;77;21141;-74
2022/05/16 04:16:41;;;;;;;10.53;2.98;;;;;;;17.18;100.00;100873.02;1818265;78;21570;-74
2022/05/16 04:19:07;;;;;;;6.28;1.98;;;;;;;16.99;100.00;100881.15;1804418;79;21176;-74
2022/05/16 04:21:36;;;;;;;12.45;2.83;;;;;;;17.10;100.00;100895.25;1815997;77;21041;-74
2022/05/16 04:24:05;;;;;;;9.38;2.98;;;;;;;16.92;100.00;100888.67;1816707;77;21151;-75
2022/05/16 04:26:34;;;;;;;6.58;2.50;;;;;;;16.87;100.00;100895.68;1803889;78;21099;-75
2022/05/16 04:29:03;;;;;;;6.10;2.42;;;;;;;16.92;100.00;100905.55;1816541;78;21120;-75
2022/05/16 04:31:30;;;;;;;7.20;2.65;;;;;;;16.98;100.00;100918.81;1816259;77;21053;-74
2022/05/16 04:33:57;;;;;;;7.72;1.75;;;;;;;16.99;100.00;100929.63;1816307;79;21610;-74
2022/05/16 04:36:25;;;;;;;11.65;2.95;;;;;;;16.66;100.00;100924.19;1790245;78;21027;-74
2022/05/16 04:38:53;;;;;;;9.08;2.30;;;;;;;16.86;100.00;100938.09;1816465;77;21068;-74
2022/05/16 04:44:06;;;;;;;9.80;2.37;;;;;;;17.22;100.00;100931.77;1816483;78;21099;-74
2022/05/16 04:46:34;;;;;;;6.03;2.02;;;;;;;17.11;100.00;100939.79;1797405;77;21595;-74
2022/05/16 04:49:02;;;;;;;8.03;2.02;;;;;;;16.89;100.00;100940.63;1789993;77;21074;-74
2022/05/16 04:51:30;;;;;;;5.45;2.70;;;;;;;17.29;100.00;100940.28;1816853;78;21141;-74
2022/05/16 04:53:58;;;;;;;8.48;2.60;;;;;;;17.19;100.00;100939.62;1816263;77;21124;-74
2022/05/16 04:56:25;;;;;;;7.95;2.70;;;;;;;17.20;100.00;100941.35;1816588;77;21096;-74
2022/05/16 04:58:52;;;;;;;7.67;2.30;;;;;;;17.19;100.00;100939.62;1816873;77;21561;-74
2022/05/16 05:01:20;;;;;;;10.98;2.15;;;;;;;17.26;100.00;100946.83;1816293;79;21062;-75
2022/05/16 05:03:47;;;;;;;11.85;3.50;;;;;;;17.37;100.00;100951.82;1815994;77;21100;-75
2022/05/16 05:06:15;;;;;;;10.38;2.75;;;;;;;17.18;100.00;100944.84;1801039;78;21043;-74
2022/05/16 05:08:42;;;;;;;6.55;1.85;;;;;;;16.85;100.00;100948.90;1790076;79;21023;-75
2022/05/16 05:16:40;;;;;;;7.08;2.45;;;;;;;17.28;100.00;100958.92;1841498;77;21519;-75
2022/05/16 05:19:09;;;;;;;7.50;2.35;;;;;;;17.15;100.00;100957.02;1828379;77;21574;-75
2022/05/16 05:21:36;;;;;;;7.03;2.62;;;;;;;17.28;100.00;100962.81;1847893;76;21131;-75
2022/05/16 05:24:04;;;;;;;8.25;2.98;;;;;;;17.25;100.00;100969.80;1847841;76;21059;-75
2022/05/16 05:26:31;;;;;;;10.58;2.10;;;;;;;17.15;100.00;100971.72;1848138;77;21041;-75
2022/05/16 05:28:59;;;;;;;7.78;2.67;;;;;;;17.28;100.00;100977.53;1848263;76;21045;-75
2022/05/16 05:31:26;;;;;;;8.05;2.70;;;;;;;17.38;100.00;100976.89;1848219;76;21110;-75
2022/05/16 05:33:55;;;;;;;5.85;2.12;;;;;;;17.57;100.00;100979.11;1851720;76;21030;-75
2022/05/16 05:36:25;;;;;;;9.88;2.58;;;;;;;17.62;100.00;100979.42;1848135;76;21132;-75
2022/05/16 05:38:53;;;;;;;6.53;2.20;;;;;;;17.66;100.00;100978.90;1848055;76;21508;-75
2022/05/16 05:41:22;;;;;;;4.55;2.12;;;;;;;17.68;100.00;100986.66;1848684;76;21136;-75
2022/05/16 05:43:50;;;;;;;8.53;2.58;;;;;;;17.65;100.00;100988.89;1846931;76;21139;-75
2022/05/16 05:46:18;;;;;;;11.03;3.00;;;;;;;17.95;100.00;100989.53;1848963;77;21104;-76
2022/05/16 05:48:46;;;;;;;10.38;2.92;;;;;;;17.65;100.00;100984.98;1848061;77;21507;-76
2022/05/16 05:51:15;;;;;;;13.72;2.98;;;;;;;17.96;100.00;100988.63;1819489;77;21495;-76
2022/05/16 05:53:44;;;;;;;12.20;2.60;;;;;;;18.17;100.00;100992.51;1849067;77;21575;-76
2022/05/16 05:56:13;;;;;;;7.78;2.20;;;;;;;17.87;100.00;100980.16;1848214;76;21032;-76
2022/05/16 05:58:41;;;;;;;3.70;2.27;;;;;;;17.87;100.00;100981.89;1822057;78;21031;-76
2022/05/16 06:01:08;;;;;;;14.75;3.72;;;;;;;17.63;100.00;100978.52;1848768;76;21047;-76
2022/05/16 06:03:36;;;;;;;11.08;2.33;;;;;;;17.59;100.00;100977.31;1851496;76;21490;-76
2022/05/16 06:06:04;;;;;;;6.60;2.47;;;;;;;17.65;100.00;100981.09;1848499;76;21093;-76
2022/05/16 06:08:31;;;;;;;8.65;2.83;;;;;;;17.76;100.00;100990.80;1819826;77;21144;-76
2022/05/16 06:11:00;;;;;;;9.88;2.98;;;;;;;17.69;100.00;101000.92;1848222;76;21575;-76
2022/05/16 06:13:29;;;;;;;9.80;2.90;;;;;;;17.71;100.00;100999.59;1847539;76;21135;-76
2022/05/16 06:15:56;;;;;;;8.40;2.60;;;;;;;17.68;100.00;101012.64;1813964;77;21173;-77
2022/05/16 06:18:26;;;;;;;9.13;2.87;;;;;;;17.53;100.00;101032.42;1848036;76;21693;-77
2022/05/16 06:20:54;;;;;;;8.65;2.40;;;;;;;17.41;100.00;101041.77;1845357;76;21343;-77
2022/05/16 06:23:21;;;;;;;4.40;2.70;;;;;;;17.50;100.00;101049.80;1846803;77;21035;-77
2022/05/16 06:25:49;;;;;;;6.78;2.85;;;;;;;17.65;100.00;101059.03;1847123;77;21173;-76
2022/05/16 06:28:20;;;;;;;8.05;2.55;;;;;;;17.51;100.00;101067.95;1847647;76;21144;-76
2022/05/16 06:30:51;;;;;;;6.33;2.22;;;;;;;17.24;100.00;101083.64;1857552;76;21121;-77
2022/05/16 06:33:22;;;;;;;8.48;2.67;;;;;;;17.19;100.00;101107.08;1865479;76;21152;-77
2022/05/16 06:35:49;;;;;;;12.07;2.72;;;;;;;17.26;100.00;101110.41;1873719;75;21160;-76
2022/05/16 06:38:19;;;;;;;6.60;2.75;;;;;;;17.33;100.00;101117.21;1870133;76;21046;-76
2022/05/16 06:40:48;;;;;;;10.95;2.30;;;;;;;17.38;100.00;101137.91;1865961;76;21108;-76
2022/05/16 06:43:17;;;;;;;7.90;2.80;;;;;;;17.31;100.00;101148.86;1849249;75;21089;-76
2022/05/16 06:45:45;;;;;;;13.08;3.17;;;;;;;17.11;100.00;101156.98;1861949;76;21165;-77
2022/05/16 06:48:13;;;;;;;8.13;3.12;;;;;;;17.21;100.00;101171.53;1869409;76;21648;-78
2022/05/16 06:50:42;;;;;;;7.65;2.58;;;;;;;17.07;100.00;101188.64;1870118;76;21137;-77
2022/05/16 06:53:15;;;;;;;7.55;2.10;;;;;;;17.08;100.00;101207.65;1869414;76;21523;-77
2022/05/16 06:55:43;;;;;;;7.60;2.20;;;;;;;17.12;100.00;101224.89;1867014;76;21078;-78
2022/05/16 06:58:10;;;;;;;5.55;2.55;;;;;;;17.08;100.00;101236.20;1875646;75;21039;-76
2022/05/16 07:00:38;;;;;;;6.65;2.45;;;;;;;16.87;100.00;101246.87;1866100;76;21704;-77
2022/05/16 07:03:06;;;;;;;7.95;2.12;;;;;;;16.96;100.00;101285.25;1871677;76;21042;-76
2022/05/16 07:05:34;;;;;;;7.70;2.52;;;;;;;16.94;100.00;101303.86;1871759;76;21090;-78
2022/05/16 07:08:01;;;;;;;7.22;2.47;;;;;;;16.90;100.00;101335.50;1871613;76;21098;-79
2022/05/16 07:10:29;;;;;;;5.58;2.47;;;;;;;16.95;100.00;101358.36;1840049;76;21085;-77
2022/05/16 07:12:57;;;;;;;9.48;2.30;;;;;;;17.07;100.00;101382.47;1866142;76;22229;-78
2022/05/16 07:15:24;;;;;;;8.13;2.37;;;;;;;17.10;100.00;101408.40;1865542;76;21157;-78
2022/05/16 07:17:52;;;;;;;7.75;1.95;;;;;;;17.21;100.00;101449.38;1869920;76;21030;-77
2022/05/16 07:20:19;;;;;;;4.60;1.82;;;;;;;17.26;100.00;101455.78;1868750;75;21804;-77
2022/05/16 07:22:48;;;;;;;9.10;2.30;;;;;;;17.43;100.00;101470.31;1872065;76;21208;-76
2022/05/16 07:25:18;;;;;;;7.37;2.45;;;;;;;17.33;100.00;101489.05;1868961;76;21129;-76
2022/05/16 07:27:59;;;;;;;5.58;2.10;;;;;;;17.24;100.00;101499.97;1870304;76;21070;-76
2022/05/16 07:30:29;;;;;;;6.58;2.72;;;;;;;17.17;100.00;101514.33;1868021;76;21523;-76
2022/05/16 07:32:57;;;;;;;11.10;2.60;;;;;;;17.41;100.00;101521.81;1841777;76;21100;-76
2022/05/16 07:35:28;;;;;;;8.05;2.20;;;;;;;17.34;100.00;101528.42;1868929;76;21097;-76
2022/05/16 07:37:56;;;;;;;12.45;3.17;;;;;;;17.20;100.00;101515.17;1869364;75;21181;-76
2022/05/16 07:40:29;;;;;;;10.88;2.98;;;;;;;17.56;100.00;101547.20;1869918;76;21138;-76
2022/05/16 07:42:57;;;;;;;5.73;2.13;;;;;;;17.74;100.00;101533.53;1854501;76;21499;-76
2022/05/16 07:45:25;;;;;;;7.92;2.20;;;;;;;17.98;100.00;101523.23;1847758;77;21153;-76
2022/05/16 07:47:53;;;;;;;8.78;2.90;;;;;;;17.67;100.00;101498.98;1847461;78;21117;-76
2022/05/16 07:50:20;;;;;;;8.08;2.20;;;;;;;17.56;100.00;101504.33;1847015;78;21046;-76
2022/05/16 07:52:48;;;;;;;9.80;2.83;;;;;;;17.70;100.00;101509.34;1821434;78;21098;-76
2022/05/16 07:55:24;;;;;;;6.35;2.20;;;;;;;17.60;100.00;101511.63;1847296;78;21172;-78
2022/05/16 07:57:51;;;;;;;7.15;2.75;;;;;;;17.43;100.00;101515.31;1847609;77;21188;-77
2022/05/16 08:00:20;;;;;;;10.38;2.62;;;;;;;17.39;100.00;101519.70;1846668;77;21136;-81
2022/05/16 08:02:48;;;;;;;7.80;2.52;;;;;;;17.35;100.00;101532.30;1820211;78;21119;-75
2022/05/16 08:05:16;;;;;;;10.23;2.70;;;;;;;17.38;100.00;101537.89;1848240;76;21139;-76
2022/05/16 08:10:29;;;;;;;4.87;2.25;;;;;;;17.26;100.00;101558.36;1845715;77;21088;-75
2022/05/16 08:12:59;;;;;;;9.28;2.20;;;;;;;17.26;100.00;101569.62;1848310;77;21038;-75
2022/05/16 08:15:26;;;;;;;5.47;2.37;;;;;;;17.24;100.00;101571.39;1852659;76;21574;-75
2022/05/16 08:17:54;;;;;;;8.60;2.50;;;;;;;17.13;100.00;101591.41;1847853;77;21053;-75
2022/05/16 08:20:22;;;;;;;3.58;1.65;;;;;;;17.02;100.00;101618.72;1816176;77;21213;-75
2022/05/16 08:22:49;;;;;;;3.65;1.55;;;;;;;16.75;100.00;101620.70;1847582;77;21088;-76
2022/05/16 08:25:17;;;;;;;4.33;1.77;;;;;;;16.78;100.00;101647.93;1847989;76;21092;-75
2022/05/16 08:27:44;;;;;;;6.65;2.20;;;;;;;17.00;100.00;101669.80;1847255;76;21035;-76
2022/05/16 08:30:13;;;;;;;6.50;2.20;;;;;;;16.99;100.00;101700.08;1839202;77;21012;-75
2022/05/16 08:32:40;;;;;;;4.75;2.25;;;;;;;17.06;100.00;101725.62;1847637;77;21072;-76
2022/05/16 08:35:09;;;;;;;3.37;1.77;;;;;;;17.07;100.00;101752.42;1847250;76;21592;-75
2022/05/16 08:40:50;;;;;;;5.75;2.27;;;;;;;18.27;100.00;101789.02;1832063;78;21138;-76
2022/05/16 08:43:21;;;;;;;4.12;1.72;;;;;;;18.27;100.00;101789.02;1832995;76;21054;-75
2022/05/16 08:45:52;;;;;;;8.88;2.00;;;;;;;18.18;100.00;101780.88;1847328;76;21089;-76
2022/05/16 08:48:28;;;;;;;4.35;2.00;;;;;;;18.21;100.00;101773.05;1846155;76;21068;-76
2022/05/16 08:51:08;;;;;;;5.03;2.12;;;;;;;18.25;100.00;101767.36;1847913;76;21212;-76
2022/05/16 08:53:45;;;;;;;14.45;4.25;;;;;;;18.23;100.00;101741.36;1847045;76;21082;-76
2022/05/16 08:56:12;;;;;;;5.12;2.75;;;;;;;18.23;100.00;101741.36;1847260;76;21668;-76
2022/05/16 08:58:45;;;;;;;8.50;2.60;;;;;;;18.34;100.00;101730.81;1848847;77;21115;-75
2022/05/16 09:01:15;;;;;;;11.80;4.05;;;;;;;17.78;100.00;101694.62;1848381;77;21506;-76
2022/05/16 09:03:57;;;;;;;12.23;3.33;;;;;;;17.96;100.00;101704.83;1847146;76;21111;-76
2022/05/16 09:06:35;;;;;;;9.75;2.70;;;;;;;17.92;100.00;101700.09;1848090;78;21115;-76
2022/05/16 09:09:18;;;;;;;9.00;3.12;;;;;;;18.02;100.00;101691.73;1848282;76;21047;-75
2022/05/16 09:12:09;;;;;;;12.93;4.40;;;;;;;17.87;100.00;101683.27;1843832;76;21093;-76
2022/05/16 09:14:58;;;;;;;9.78;2.95;;;;;;;17.80;100.00;101688.11;1846627;76;21122;-76
2022/05/16 09:17:56;;;;;;;14.98;3.27;;;;;;;17.79;100.00;101711.92;1847144;76;21050;-76
2022/05/16 09:20:26;;;;;;;7.15;3.00;;;;;;;17.67;100.00;101691.27;1848290;76;21542;-76
2022/05/16 09:23:15;;;;;;;6.40;3.17;;;;;;;17.74;100.00;101702.45;1849213;77;21485;-76
2022/05/16 09:26:09;;;;;;;11.12;3.55;;;;;;;17.72;100.00;101706.41;1849970;76;21490;-78
2022/05/16 09:28:49;;;;;;;9.03;3.35;;;;;;;17.64;100.00;101715.98;1846847;76;21082;-77
2022/05/16 09:31:28;;;;;;;7.75;3.05;;;;;;;17.52;100.00;101723.48;1845578;77;21082;-76
2022/05/16 09:33:58;;;;;;;8.45;2.95;;;;;;;17.31;100.00;101725.41;1848798;76;21120;-76
2022/05/16 09:36:34;;;;;;;9.55;4.08;;;;;;;17.37;100.00;101729.69;1849566;76;21048;-77
2022/05/16 09:39:03;;;;;;;9.88;3.58;;;;;;;17.22;100.00;101741.92;1849018;77;21044;-75
2022/05/16 09:41:42;;;;;;;12.33;2.72;;;;;;;17.33;100.00;101750.91;1849430;77;21551;-75
2022/05/16 09:44:25;;;;;;;8.60;2.72;;;;;;;17.14;100.00;101745.02;1841535;76;21093;-75
2022/05/16 09:47:14;;;;;;;7.67;2.22;;;;;;;17.19;100.00;101746.29;1832533;77;21066;-76
2022/05/16 09:49:42;;;;;;;7.62;1.90;;;;;;;17.12;100.00;101743.73;1846271;77;21076;-75
2022/05/16 09:52:15;;;;;;;7.55;2.83;;;;;;;16.99;100.00;101724.74;1849014;76;21602;-75
2022/05/16 09:54:43;;;;;;;10.10;2.25;;;;;;;16.91;100.00;101729.59;1826334;77;21096;-75
2022/05/16 09:57:20;;;;;;;9.43;2.27;;;;;;;16.79;100.00;101733.11;1849877;76;21084;-75
2022/05/16 09:59:53;;;;;;;6.10;2.10;;;;;;;16.78;100.00;101723.19;1848856;76;21138;-75
2022/05/16 10:02:27;;;;;;;10.23;1.90;;;;;;;16.66;100.00;101749.18;1823470;77;21116;-75
2022/05/16 10:05:03;;;;;;;6.40;2.10;;;;;;;16.49;100.00;101746.24;1848416;76;21163;-77
2022/05/16 10:07:34;;;;;;;8.95;1.98;;;;;;;16.56;100.00;101765.23;1841439;76;21094;-75
2022/05/16 10:10:02;;;;;;;4.85;1.92;;;;;;;16.83;100.00;101777.21;1848482;77;21069;-75
2022/05/16 10:12:30;;;;;;;7.37;1.65;;;;;;;16.70;100.00;101780.30;1826259;77;21031;-75
2022/05/16 10:14:59;;;;;;;7.47;1.75;;;;;;;16.96;100.00;101790.98;1845050;77;21147;-75
2022/05/16 10:17:32;;;;;;;5.40;1.62;;;;;;;17.17;100.00;101785.25;1848532;76;21031;-75
2022/05/16 10:20:05;;;;;;;4.35;1.62;;;;;;;17.30;100.00;101780.80;1848434;76;21058;-75
2022/05/16 10:22:32;;;;;;;;;;;;;;;17.27;100.00;101773.06;1852138;76;21100;-75
2022/05/16 10:25:01;;;;;;;4.72;1.30;;;;;;;17.57;100.00;101767.62;1848101;77;20407;-76
2022/05/16 10:27:31;;;;;;;8.80;1.60;;;;;;;18.04;100.00;101759.77;1845105;77;21601;-76
2022/05/16 10:30:01;;;;;;;6.15;1.70;;;;;;;18.17;100.00;101747.50;1821636;76;21118;-77
2022/05/16 10:35:23;;;;;;;8.58;2.37;;;;;;;18.23;100.00;101720.55;1847720;78;21298;-76
2022/05/16 10:37:53;;;;;;;6.92;2.15;;;;;;;18.31;100.00;101708.77;1846342;76;21043;-76
2022/05/16 10:40:36;;;;;;;10.53;2.77;;;;;;;18.74;100.00;101668.24;1846820;77;21052;-76
2022/05/16 10:43:30;;;;;;;11.20;2.30;;;;;;;18.74;100.00;101668.24;1847113;76;21134;-75
2022/05/16 10:45:58;;;;;;;8.38;2.85;;;;;;;19.03;100.00;101644.76;1846732;76;21092;-75
2022/05/16 10:48:31;;;;;;;13.72;2.47;;;;;;;19.84;100.00;101622.86;1844742;76;21057;-76
2022/05/16 10:51:08;;;;;;;9.58;2.55;;;;;;;19.56;100.00;101570.84;1846706;76;21120;-76
2022/05/16 10:53:48;;;;;;;9.85;2.67;;;;;;;19.22;100.00;101548.09;1847517;77;21160;-76
2022/05/16 10:56:41;;;;;;;12.18;2.58;;;;;;;18.90;100.00;101537.35;1818143;77;21137;-77
2022/05/16 10:59:28;;;;;;;10.00;2.52;;;;;;;18.89;100.00;101545.22;1847644;78;21032;-76
2022/05/16 11:02:15;;;;;;;8.28;2.40;;;;;;;18.89;100.00;101546.06;1847389;76;21191;-76
2022/05/16 11:04:51;;;;;;;8.23;2.90;;;;;;;19.03;100.00;101556.68;1847180;76;21171;-76
2022/05/16 11:07:50;;;;;;;8.65;2.65;;;;;;;18.96;100.00;101541.59;1848032;76;21056;-77
2022/05/16 11:10:26;;;;;;;10.18;2.33;;;;;;;19.33;100.00;101535.72;1847796;78;21541;-76
2022/05/16 11:13:02;;;;;;;9.80;2.90;;;;;;;19.41;100.00;101520.38;1848908;78;21442;-76
2022/05/16 11:15:44;;;;;;;22.35;3.27;;;;;;;19.51;100.00;101508.84;1847164;76;21149;-76
2022/05/16 11:18:27;;;;;;;9.55;2.77;;;;;;;19.24;100.00;101488.15;1848082;78;21148;-76
2022/05/16 11:21:00;;;;;;;10.90;2.80;;;;;;;18.97;100.00;101472.16;1829275;78;21496;-75
2022/05/16 11:23:37;;;;;;;12.80;3.20;;;;;;;18.97;100.00;101472.16;1826233;76;21094;-76
2022/05/16 11:26:22;;;;;;;17.48;3.30;;;;;;;18.94;100.00;101473.95;1829190;78;21509;-78
2022/05/16 11:29:21;;;;;;;8.60;2.87;;;;;;;18.95;100.00;101470.87;1797043;79;21090;-75
2022/05/16 11:32:08;;;;;;;10.95;2.95;;;;;;;19.00;100.00;101472.10;1836118;78;21499;-75
2022/05/16 11:35:06;;;;;;;9.43;2.50;;;;;;;18.83;100.00;101466.33;1837380;78;21067;-76
2022/05/16 11:37:48;;;;;;;11.90;3.50;;;;;;;18.67;100.00;101468.80;1835930;78;21055;-76
2022/05/16 11:40:42;;;;;;;8.03;2.58;;;;;;;18.57;100.00;101474.63;1817105;78;21227;-76
2022/05/16 11:43:31;;;;;;;13.63;3.30;;;;;;;18.59;100.00;101487.61;1813397;78;21137;-76
2022/05/16 11:46:30;;;;;;;9.35;2.33;;;;;;;18.62;100.00;101490.16;1819686;78;21217;-76
2022/05/16 11:49:17;;;;;;;6.53;2.17;;;;;;;18.62;100.00;101484.50;1827008;78;21103;-76
2022/05/16 11:51:54;;;;;;;8.68;3.33;;;;;;;18.46;100.00;101499.54;1817136;78;21504;-76
2022/05/16 11:54:27;;;;;;;12.55;2.80;;;;;;;18.55;100.00;101500.67;1820523;78;21172;-76
2022/05/16 12:02:47;;;;;;;4.78;1.98;;;;;;;18.42;100.00;101509.59;1818260;78;21180;-76
2022/05/16 12:05:26;;;;;;;10.18;2.45;;;;;;;18.44;100.00;101513.00;1797080;78;21118;-76
2022/05/16 12:08:12;;;;;;;7.55;2.72;;;;;;;18.61;100.00;101517.08;1800238;78;21102;-77